createdAt,value
2019-03-09T00:01:49.055Z,100157.33
2019-03-09T00:06:52.492Z,100141.73
2019-03-09T00:11:55.915Z,100128.75
2019-03-09T00:16:59.357Z,100127.03
2019-03-09T00:22:02.780Z,100120.53
2019-03-09T00:27:08.021Z,100109.17
2019-03-09T00:32:15.829Z,100088.98
2019-03-09T00:37:19.265Z,100074.35
2019-03-09T00:42:22.728Z,100057.42
2019-03-09T00:47:26.608Z,100055.65
2019-03-09T00:52:30.055Z,100044.90
2019-03-09T00:57:33.515Z,100041.44
2019-03-09T01:02:36.951Z,100028.52
2019-03-09T01:07:40.359Z,100016.81
2019-03-09T01:12:43.864Z,100010.30
2019-03-09T01:17:47.377Z,100002.16
2019-03-09T01:22:50.913Z,99981.36
2019-03-09T01:27:54.331Z,99961.05
2019-03-09T01:32:57.804Z,99961.39
2019-03-09T01:38:01.208Z,99940.61
2019-03-09T01:43:04.709Z,99923.45
2019-03-09T01:48:08.153Z,99914.78
2019-03-09T01:53:11.590Z,99911.44
2019-03-09T01:58:16.591Z,99903.25
2019-03-09T02:03:19.986Z,99900.75
2019-03-09T02:08:23.855Z,99894.30
2019-03-09T02:13:27.299Z,99880.48
2019-03-09T02:18:30.738Z,99871.09
2019-03-09T02:23:34.177Z,99862.02
2019-03-09T02:28:37.601Z,99856.84
2019-03-09T02:33:41.962Z,99836.60
2019-03-09T02:43:59.364Z,99823.59
2019-03-09T02:49:02.807Z,99811.61
2019-03-09T02:54:06.276Z,99802.07
2019-03-09T02:59:09.715Z,99797.44
2019-03-09T03:04:13.207Z,99791.03
2019-03-09T03:09:16.705Z,99776.36
2019-03-09T03:14:20.368Z,99772.05
2019-03-09T03:19:23.798Z,99760.36
2019-03-09T03:24:27.238Z,99762.53
2019-03-09T03:29:30.661Z,99749.20
2019-03-09T03:34:34.099Z,99750.88
2019-03-09T03:39:37.530Z,99763.90
2019-03-09T03:44:46.819Z,99763.41
2019-03-09T03:49:50.261Z,99755.98
2019-03-09T03:54:53.703Z,99758.57
2019-03-09T03:59:57.234Z,99755.98
2019-03-09T04:05:00.688Z,99739.06
2019-03-09T04:10:06.296Z,99736.38
2019-03-09T04:15:10.345Z,99740.99
2019-03-09T04:20:14.132Z,99739.23
2019-03-09T04:25:17.583Z,99732.28
2019-03-09T04:30:21.019Z,99737.73
2019-03-09T04:35:24.481Z,99739.37
2019-03-09T04:40:27.921Z,99753.93
2019-03-09T04:45:31.399Z,99766.45
2019-03-09T04:50:34.861Z,99782.84
2019-03-09T04:55:38.276Z,99774.13
2019-03-09T05:00:41.735Z,99775.75
2019-03-09T05:05:45.264Z,99790.31
2019-03-09T05:10:54.943Z,99797.74
2019-03-09T05:15:58.448Z,99786.86
2019-03-09T05:21:01.876Z,99797.19
2019-03-09T05:26:05.297Z,99811.88
2019-03-09T05:31:08.745Z,99839.80
2019-03-09T05:36:12.172Z,99858.80
2019-03-09T05:41:16.626Z,99866.97
2019-03-09T05:46:20.749Z,99866.14
2019-03-09T05:51:24.289Z,99883.84
2019-03-09T05:56:27.902Z,99888.16
2019-03-09T06:01:31.412Z,99891.66
2019-03-09T06:06:34.820Z,99898.12
2019-03-09T06:11:38.253Z,99879.23
2019-03-09T06:16:41.684Z,99895.71
2019-03-09T06:21:45.588Z,99911.36
2019-03-09T06:26:51.820Z,99914.40
2019-03-09T06:32:52.677Z,99919.53
2019-03-09T06:38:05.113Z,99934.59
2019-03-09T06:43:08.560Z,99936.30
2019-03-09T06:48:11.975Z,99936.64
2019-03-09T06:53:15.470Z,99952.58
2019-03-09T06:58:18.865Z,99958.11
2019-03-09T07:03:22.288Z,99966.80
2019-03-09T07:08:25.761Z,99975.81
2019-03-09T07:13:29.193Z,99993.52
2019-03-09T07:18:33.341Z,99986.59
2019-03-09T07:23:36.784Z,99995.21
2019-03-09T07:28:40.220Z,99990.84
2019-03-09T07:33:43.664Z,100001.20
2019-03-09T07:38:47.124Z,100018.03
2019-03-09T07:43:50.570Z,100013.56
2019-03-09T07:48:54.110Z,100014.25
2019-03-09T07:53:57.558Z,100013.81
2019-03-09T07:59:01.026Z,100044.41
2019-03-09T08:04:04.579Z,100051.82
2019-03-09T08:09:08.172Z,100045.48
2019-03-09T08:14:11.600Z,100054.05
2019-03-09T08:19:15.068Z,100063.59
2019-03-09T08:24:18.584Z,100055.28
2019-03-09T08:29:22.082Z,100062.98
2019-03-09T08:34:25.543Z,100058.16
2019-03-09T08:39:28.953Z,100050.05
2019-03-09T08:44:32.486Z,100050.45
2019-03-09T08:49:36.902Z,100060.25
2019-03-09T08:54:40.411Z,100042.59
2019-03-09T08:59:43.931Z,100046.34
2019-03-09T09:04:47.356Z,100058.88
2019-03-09T09:09:50.782Z,100044.43
2019-03-09T09:14:54.232Z,100054.20
2019-03-09T09:19:57.675Z,100063.31
2019-03-09T09:25:01.119Z,100052.33
2019-03-09T09:30:10.626Z,100033.72
2019-03-09T09:35:14.714Z,100028.06
2019-03-09T09:40:23.574Z,100010.86
2019-03-09T09:45:27.103Z,100000.66
2019-03-09T09:50:30.626Z,100002.41
2019-03-09T09:55:34.326Z,99998.81
2019-03-09T10:00:37.753Z,99978.17
2019-03-09T10:05:41.204Z,99981.15
2019-03-09T10:10:55.087Z,100001.86
2019-03-09T10:16:04.442Z,100014.48
2019-03-09T10:21:07.911Z,100001.22
2019-03-09T10:26:11.434Z,100005.98
2019-03-09T10:31:14.918Z,100010.45
2019-03-09T10:36:18.372Z,100004.46
2019-03-09T10:41:21.985Z,99986.11
2019-03-09T10:46:25.414Z,99988.08
2019-03-09T10:51:28.822Z,99967.77
2019-03-09T10:56:32.299Z,99977.90
2019-03-09T11:01:37.453Z,99978.95
2019-03-09T11:06:40.881Z,99981.45
2019-03-09T11:11:44.356Z,99969.25
2019-03-09T11:16:47.741Z,99985.73
2019-03-09T11:21:51.230Z,99968.36
2019-03-09T11:32:29.335Z,99956.27
2019-03-09T11:37:34.150Z,99957.47
2019-03-09T11:42:42.242Z,99939.68
2019-03-09T11:47:45.857Z,99947.58
2019-03-09T11:52:49.282Z,99941.06
2019-03-09T11:57:52.774Z,99938.16
2019-03-09T12:02:56.316Z,99940.50
2019-03-09T12:07:59.756Z,99932.84
2019-03-09T12:13:13.088Z,99947.83
2019-03-09T12:18:19.857Z,99923.41
2019-03-09T12:23:26.001Z,99912.05
2019-03-09T12:28:30.938Z,99912.14
2019-03-09T12:33:34.370Z,99927.11
2019-03-09T12:38:37.841Z,99904.63
2019-03-09T12:43:42.821Z,99896.75
2019-03-09T12:48:46.279Z,99882.70
2019-03-09T12:53:54.288Z,99872.44
2019-03-09T12:59:36.953Z,99857.66
2019-03-09T13:04:40.381Z,99845.95
2019-03-09T13:09:43.811Z,99840.91
2019-03-09T13:14:49.954Z,99826.19
2019-03-09T13:19:54.438Z,99815.86
2019-03-09T13:25:00.890Z,99797.75
2019-03-09T13:30:09.339Z,99788.23
2019-03-09T13:35:12.965Z,99761.19
2019-03-09T13:40:17.047Z,99748.47
2019-03-09T13:45:20.489Z,99724.11
2019-03-09T13:50:23.905Z,99683.72
2019-03-09T13:55:27.347Z,99658.55
2019-03-09T14:00:40.499Z,99642.56
2019-03-09T14:05:38.394Z,99602.23
2019-03-09T14:10:41.821Z,99587.16
2019-03-09T14:15:45.320Z,99636.76
2019-03-09T14:20:48.772Z,99661.08
2019-03-09T14:25:53.854Z,99711.99
2019-03-09T14:30:58.626Z,99706.40
2019-03-09T14:36:11.733Z,99694.80
2019-03-09T14:46:46.464Z,99648.26
2019-03-09T14:51:49.941Z,99633.75
2019-03-09T14:56:53.463Z,99623.69
2019-03-09T15:01:56.982Z,99620.78
2019-03-09T15:07:28.338Z,99600.09
2019-03-09T15:12:31.778Z,99597.15
2019-03-09T15:18:01.940Z,99587.84
2019-03-09T15:28:49.695Z,99587.88
2019-03-09T15:33:53.123Z,99564.72
2019-03-09T15:38:56.567Z,99593.10
2019-03-09T15:43:59.971Z,99583.19
2019-03-09T15:49:03.404Z,99629.25
2019-03-09T15:54:06.900Z,99646.19
2019-03-09T15:59:10.332Z,99716.75
2019-03-09T16:04:13.790Z,99769.88
2019-03-09T16:09:17.252Z,99769.46
2019-03-09T16:14:20.787Z,99761.83
2019-03-09T16:19:24.224Z,99762.53
2019-03-09T16:24:27.641Z,99811.33
2019-03-09T16:29:31.074Z,99785.01
2019-03-09T16:34:34.502Z,99804.84
2019-03-09T16:39:37.946Z,99788.64
2019-03-09T16:44:41.373Z,99796.75
2019-03-09T16:49:44.824Z,99798.41
2019-03-09T16:54:48.242Z,99819.80
2019-03-09T16:59:51.661Z,99839.20
2019-03-09T17:04:55.174Z,99872.41
2019-03-09T17:09:58.646Z,99896.67
2019-03-09T17:15:02.084Z,99916.86
2019-03-09T17:20:08.347Z,99939.34
2019-03-09T17:25:11.904Z,99955.77
2019-03-09T17:30:17.271Z,99959.66
2019-03-09T17:35:23.497Z,99988.23
2019-03-09T17:40:26.926Z,100012.89
2019-03-09T17:45:30.351Z,100036.23
2019-03-09T17:50:33.779Z,100061.30
2019-03-09T17:55:37.200Z,100076.40
2019-03-09T18:00:42.865Z,100106.23
2019-03-09T18:05:46.353Z,100119.22
2019-03-09T18:10:55.738Z,100162.91
2019-03-09T18:15:59.150Z,100200.98
2019-03-09T18:21:02.586Z,100190.19
2019-03-09T18:26:05.998Z,100216.61
2019-03-09T18:31:11.744Z,100238.30
2019-03-09T18:36:15.233Z,100253.52
2019-03-09T18:41:18.731Z,100260.02
2019-03-09T18:46:22.140Z,100283.44
2019-03-09T18:51:25.582Z,100296.41
2019-03-09T18:56:29.078Z,100310.23
2019-03-09T19:01:32.819Z,100324.55
2019-03-09T19:06:36.254Z,100328.48
2019-03-09T19:11:39.694Z,100344.50
2019-03-09T19:16:43.114Z,100351.45
2019-03-09T19:21:46.786Z,100358.79
2019-03-09T19:26:50.176Z,100371.76
2019-03-09T19:31:53.652Z,100372.66
2019-03-09T19:36:58.942Z,100371.84
2019-03-09T19:42:03.245Z,100377.88
2019-03-09T19:47:06.666Z,100399.47
2019-03-09T19:52:10.133Z,100406.37
2019-03-09T19:57:13.547Z,100406.41
2019-03-09T20:02:16.972Z,100404.25
2019-03-09T20:07:20.408Z,100403.38
2019-03-09T20:12:23.833Z,100397.78
2019-03-09T20:17:27.251Z,100401.69
2019-03-09T20:22:30.691Z,100410.31
2019-03-09T20:27:34.214Z,100415.91
2019-03-09T20:32:37.772Z,100430.17
2019-03-09T20:37:41.186Z,100430.19
2019-03-09T20:42:45.799Z,100429.30
2019-03-09T20:47:50.676Z,100421.11
2019-03-09T20:52:54.202Z,100431.89
2019-03-09T20:57:57.623Z,100430.16
2019-03-09T21:03:01.045Z,100428.44
2019-03-09T21:08:04.493Z,100422.81
2019-03-09T21:13:09.274Z,100429.73
2019-03-09T21:18:12.711Z,100432.32
2019-03-09T21:23:16.171Z,100430.16
2019-03-09T21:28:19.611Z,100429.72
2019-03-09T21:33:23.048Z,100423.70
2019-03-09T21:38:26.533Z,100428.01
2019-03-09T21:43:29.973Z,100423.27
2019-03-09T21:48:33.425Z,100423.27
2019-03-09T21:53:36.860Z,100415.93
2019-03-09T21:58:40.274Z,100429.72
2019-03-09T22:03:43.714Z,100432.77
2019-03-09T22:08:47.161Z,100428.45
2019-03-09T22:13:50.587Z,100440.09
2019-03-09T22:18:54.021Z,100446.14
2019-03-09T22:23:57.842Z,100436.20
2019-03-09T22:29:01.256Z,100425.00
2019-03-09T22:34:04.757Z,100438.38
2019-03-09T22:39:08.569Z,100436.66
2019-03-09T22:44:12.019Z,100444.41
2019-03-09T22:49:15.437Z,100443.56
2019-03-09T22:54:18.856Z,100445.25
2019-03-09T22:59:22.287Z,100443.55
2019-03-09T23:04:25.876Z,100441.36
2019-03-09T23:09:29.443Z,100430.16
2019-03-09T23:14:33.959Z,100423.66
2019-03-09T23:19:37.460Z,100421.08
2019-03-09T23:24:40.879Z,100424.53
2019-03-09T23:29:44.310Z,100429.27
2019-03-09T23:34:47.728Z,100429.70
2019-03-09T23:39:51.166Z,100439.19
2019-03-09T23:44:54.606Z,100435.33
2019-03-09T23:49:58.020Z,100427.12
2019-03-09T23:55:01.515Z,100414.14
